Time,TemperatureF,DewpointF,PressureIn,WindDirection,WindDirectionDegrees,WindSpeedMPH,WindSpeedGustMPH,Humidity,HourlyPrecipIn,Conditions,Clouds,dailyrainin,SoftwareType,DateUTC
2013-07-02 00:04:00,68.4,63.4,30.00,West,270,2.7,-999.0,84,-99.99,,,0.00,Acu-Link.com,2013-07-02 06:04:00,
2013-07-02 00:19:00,69.4,58.0,30.00,SE,135,4.2,-999.0,67,-99.99,,,0.00,Acu-Link.com,2013-07-02 06:19:00,
2013-07-02 00:35:00,69.8,58.3,30.00,ESE,112,4.2,-999.0,67,-99.99,,,0.00,Acu-Link.com,2013-07-02 06:35:00,
2013-07-02 00:50:00,68.7,61.9,30.02,NW,315,0.0,-999.0,79,-99.99,,,0.00,Acu-Link.com,2013-07-02 06:50:00,
2013-07-02 01:05:00,67.6,62.2,30.03,NNW,337,4.2,-999.0,83,-99.99,,,0.00,Acu-Link.com,2013-07-02 07:05:00,
2013-07-02 01:21:00,67.5,62.1,30.02,ESE,112,3.2,-999.0,83,-99.99,,,0.00,Acu-Link.com,2013-07-02 07:21:00,
2013-07-02 01:36:00,67.3,61.6,30.02,NNE,22,3.7,-999.0,82,-99.99,,,0.00,Acu-Link.com,2013-07-02 07:36:00,
2013-07-02 01:51:00,67.3,61.3,30.02,NNW,337,4.7,-999.0,81,-99.99,,,0.00,Acu-Link.com,2013-07-02 07:51:00,
2013-07-02 02:07:00,67.1,60.7,30.02,North,0,6.8,-999.0,80,-99.99,,,0.00,Acu-Link.com,2013-07-02 08:07:00,
2013-07-02 02:22:00,67.1,60.7,30.02,NNE,22,4.7,-999.0,80,-99.99,,,0.00,Acu-Link.com,2013-07-02 08:22:00,
2013-07-02 02:38:00,66.7,60.7,30.01,North,0,6.3,-999.0,81,-99.99,,,0.00,Acu-Link.com,2013-07-02 08:38:00,
2013-07-02 02:53:00,66.4,60.7,30.01,NNW,337,6.8,-999.0,82,-99.99,,,0.00,Acu-Link.com,2013-07-02 08:53:00,
2013-07-02 03:08:00,65.7,61.4,30.01,WNW,292,5.8,-999.0,86,-99.99,,,0.00,Acu-Link.com,2013-07-02 09:08:00,
2013-07-02 03:23:00,65.7,61.1,30.00,North,0,6.3,-999.0,85,-99.99,,,0.00,Acu-Link.com,2013-07-02 09:23:00,
2013-07-02 03:38:00,65.8,60.5,29.98,NE,45,3.7,-999.0,83,-99.99,,,0.00,Acu-Link.com,2013-07-02 09:38:00,
2013-07-02 03:54:00,65.7,60.4,30.00,NNW,337,5.8,-999.0,83,-99.99,,,0.00,Acu-Link.com,2013-07-02 09:54:00,
2013-07-02 04:09:00,65.7,59.7,30.00,NNW,337,6.8,-999.0,81,-99.99,,,0.00,Acu-Link.com,2013-07-02 10:09:00,
2013-07-02 04:24:00,65.8,58.7,30.00,NNE,22,5.8,-999.0,78,-99.99,,,0.00,Acu-Link.com,2013-07-02 10:24:00,
2013-07-02 04:39:00,65.8,59.8,29.99,NNE,22,3.7,-999.0,81,-99.99,,,0.00,Acu-Link.com,2013-07-02 10:39:00,
2013-07-02 04:55:00,65.5,59.9,29.99,North,0,4.2,-999.0,82,-99.99,,,0.00,Acu-Link.com,2013-07-02 10:55:00,
2013-07-02 05:10:00,65.3,60.0,30.01,NNE,22,4.7,-999.0,83,-99.99,,,0.00,Acu-Link.com,2013-07-02 11:10:00,
2013-07-02 05:25:00,64.9,59.3,30.01,NNE,22,4.7,-999.0,82,-99.99,,,0.00,Acu-Link.com,2013-07-02 11:25:00,
2013-07-02 05:40:00,64.9,58.2,30.02,NW,315,6.3,-999.0,79,-99.99,,,0.00,Acu-Link.com,2013-07-02 11:40:00,
2013-07-02 05:56:00,64.4,58.4,30.02,NW,315,4.2,-999.0,81,-99.99,,,0.00,Acu-Link.com,2013-07-02 11:56:00,
2013-07-02 06:11:00,64.0,58.7,30.03,NNW,337,4.2,-999.0,83,-99.99,,,0.00,Acu-Link.com,2013-07-02 12:11:00,
2013-07-02 06:26:00,64.2,58.6,30.03,North,0,3.2,-999.0,82,-99.99,,,0.00,Acu-Link.com,2013-07-02 12:26:00,
2013-07-02 06:41:00,64.2,58.6,30.02,North,0,6.8,-999.0,82,-99.99,,,0.00,Acu-Link.com,2013-07-02 12:41:00,
2013-07-02 06:57:00,65.3,58.6,30.03,NNW,337,3.7,-999.0,79,-99.99,,,0.00,Acu-Link.com,2013-07-02 12:57:00,
2013-07-02 07:12:00,66.7,58.9,30.04,WNW,292,5.3,-999.0,76,-99.99,,,0.00,Acu-Link.com,2013-07-02 13:12:00,
2013-07-02 07:27:00,67.6,59.0,30.04,NW,315,2.2,-999.0,74,-99.99,,,0.00,Acu-Link.com,2013-07-02 13:27:00,
2013-07-02 07:42:00,72.1,58.8,30.04,NNW,337,2.7,-999.0,63,-99.99,,,0.00,Acu-Link.com,2013-07-02 13:42:00,
2013-07-02 07:57:00,71.1,58.3,30.05,NW,315,5.3,-999.0,64,-99.99,,,0.00,Acu-Link.com,2013-07-02 13:57:00,
2013-07-02 08:13:00,72.1,57.9,30.06,WNW,292,3.7,-999.0,61,-99.99,,,0.00,Acu-Link.com,2013-07-02 14:13:00,
2013-07-02 08:28:00,74.3,57.1,30.06,North,0,3.7,-999.0,55,-99.99,,,0.00,Acu-Link.com,2013-07-02 14:28:00,
2013-07-02 08:43:00,75.9,55.9,30.06,SW,225,0.0,-999.0,50,-99.99,,,0.00,Acu-Link.com,2013-07-02 14:43:00,
2013-07-02 08:58:00,80.8,56.2,30.05,SW,225,2.7,-999.0,43,-99.99,,,0.00,Acu-Link.com,2013-07-02 14:58:00,
2013-07-02 09:14:00,78.1,51.8,30.06,SE,135,7.3,-999.0,40,-99.99,,,0.00,Acu-Link.com,2013-07-02 15:14:00,
2013-07-02 09:29:00,80.1,52.2,30.05,SE,135,3.2,-999.0,38,-99.99,,,0.00,Acu-Link.com,2013-07-02 15:29:00,
2013-07-02 09:44:00,79.0,53.3,30.05,South,180,4.2,-999.0,41,-99.99,,,0.00,Acu-Link.com,2013-07-02 15:44:00,
2013-07-02 10:00:00,83.8,52.4,30.05,ESE,112,4.7,-999.0,34,-99.99,,,0.00,Acu-Link.com,2013-07-02 16:00:00,
2013-07-02 10:15:00,79.2,51.4,30.04,SSE,157,6.8,-999.0,38,-99.99,,,0.00,Acu-Link.com,2013-07-02 16:15:00,
2013-07-02 10:30:00,79.2,51.4,30.03,ENE,67,8.3,-999.0,38,-99.99,,,0.00,Acu-Link.com,2013-07-02 16:30:00,
2013-07-02 10:46:00,80.6,51.9,30.04,ESE,112,5.8,-999.0,37,-99.99,,,0.00,Acu-Link.com,2013-07-02 16:46:00,
2013-07-02 11:01:00,80.4,51.7,30.04,ESE,112,6.8,-999.0,37,-99.99,,,0.00,Acu-Link.com,2013-07-02 17:01:00,
2013-07-02 11:16:00,81.0,51.5,30.03,SSE,157,10.4,-999.0,36,-99.99,,,0.00,Acu-Link.com,2013-07-02 17:16:00,
2013-07-02 11:31:00,81.9,49.9,30.03,SE,135,11.9,-999.0,33,-99.99,,,0.00,Acu-Link.com,2013-07-02 17:31:00,
2013-07-02 11:47:00,81.3,50.2,30.03,SSE,157,8.9,-999.0,34,-99.99,,,0.00,Acu-Link.com,2013-07-02 17:47:00,
2013-07-02 12:02:00,81.9,49.9,30.01,ESE,112,5.8,-999.0,33,-99.99,,,0.00,Acu-Link.com,2013-07-02 18:02:00,
2013-07-02 12:17:00,83.8,50.8,30.02,SSW,202,9.4,-999.0,32,-99.99,,,0.00,Acu-Link.com,2013-07-02 18:17:00,
2013-07-02 12:32:00,84.4,50.4,30.00,SSE,157,8.3,-999.0,31,-99.99,,,0.00,Acu-Link.com,2013-07-02 18:32:00,
2013-07-02 12:47:00,85.1,51.9,30.00,South,180,3.7,-999.0,32,-99.99,,,0.00,Acu-Link.com,2013-07-02 18:47:00,
2013-07-02 13:02:00,85.1,50.1,29.99,ESE,112,7.3,-999.0,30,-99.99,,,0.00,Acu-Link.com,2013-07-02 19:02:00,
2013-07-02 13:17:00,86.7,50.6,29.97,SSE,157,6.8,-999.0,29,-99.99,,,0.00,Acu-Link.com,2013-07-02 19:17:00,
2013-07-02 13:32:00,85.6,49.7,29.97,East,90,8.9,-999.0,29,-99.99,,,0.00,Acu-Link.com,2013-07-02 19:32:00,
2013-07-02 13:48:00,87.4,50.3,29.97,SSE,157,9.4,-999.0,28,-99.99,,,0.00,Acu-Link.com,2013-07-02 19:48:00,
2013-07-02 14:03:00,86.9,49.8,29.95,ESE,112,8.3,-999.0,28,-99.99,,,0.00,Acu-Link.com,2013-07-02 20:03:00,
2013-07-02 14:18:00,87.6,49.5,29.95,SSE,157,6.8,-999.0,27,-99.99,,,0.00,Acu-Link.com,2013-07-02 20:18:00,
2013-07-02 14:33:00,86.9,48.9,29.93,NNE,22,5.3,-999.0,27,-99.99,,,0.00,Acu-Link.com,2013-07-02 20:33:00,
2013-07-02 14:48:00,87.1,49.0,29.92,ESE,112,5.8,-999.0,27,-99.99,,,0.00,Acu-Link.com,2013-07-02 20:48:00,
2013-07-02 15:03:00,89.2,48.7,29.91,SE,135,8.9,-999.0,25,-99.99,,,0.00,Acu-Link.com,2013-07-02 21:03:00,
2013-07-02 15:18:00,87.8,47.6,29.91,ESE,112,7.3,-999.0,25,-99.99,,,0.00,Acu-Link.com,2013-07-02 21:18:00,
2013-07-02 15:34:00,89.1,48.7,29.89,ESE,112,11.4,-999.0,25,-99.99,,,0.00,Acu-Link.com,2013-07-02 21:34:00,
2013-07-02 15:49:00,89.2,48.7,29.88,SE,135,11.4,-999.0,25,-99.99,,,0.00,Acu-Link.com,2013-07-02 21:49:00,
2013-07-02 16:05:00,89.8,48.2,29.86,South,180,6.3,-999.0,24,-99.99,,,0.00,Acu-Link.com,2013-07-02 22:05:00,
2013-07-02 16:20:00,88.7,48.3,29.86,SW,225,3.2,-999.0,25,-99.99,,,0.00,Acu-Link.com,2013-07-02 22:20:00,
2013-07-02 16:35:00,89.1,48.7,29.84,SE,135,6.3,-999.0,25,-99.99,,,0.00,Acu-Link.com,2013-07-02 22:35:00,
2013-07-02 16:50:00,88.5,48.2,29.85,ESE,112,7.8,-999.0,25,-99.99,,,0.00,Acu-Link.com,2013-07-02 22:50:00,
2013-07-02 17:05:00,87.4,48.3,29.86,SSE,157,6.3,-999.0,26,-99.99,,,0.00,Acu-Link.com,2013-07-02 23:05:00,
2013-07-02 17:21:00,87.1,47.0,29.85,SE,135,2.7,-999.0,25,-99.99,,,0.00,Acu-Link.com,2013-07-02 23:21:00,
2013-07-02 17:36:00,87.8,47.6,29.84,SE,135,9.9,-999.0,25,-99.99,,,0.00,Acu-Link.com,2013-07-02 23:36:00,
2013-07-02 17:51:00,87.1,47.0,29.84,ESE,112,6.3,-999.0,25,-99.99,,,0.00,Acu-Link.com,2013-07-02 23:51:00,
2013-07-02 18:06:00,87.3,48.2,29.83,South,180,9.4,-999.0,26,-99.99,,,0.00,Acu-Link.com,2013-07-03 00:06:00,
2013-07-02 18:22:00,86.4,46.4,29.83,SSE,157,5.3,-999.0,25,-99.99,,,0.00,Acu-Link.com,2013-07-03 00:22:00,
2013-07-02 18:37:00,86.7,46.6,29.83,ESE,112,4.2,-999.0,25,-99.99,,,0.00,Acu-Link.com,2013-07-03 00:37:00,
2013-07-02 18:52:00,86.0,47.1,29.84,SE,135,11.4,-999.0,26,-99.99,,,0.00,Acu-Link.com,2013-07-03 00:52:00,
2013-07-02 19:07:00,85.8,46.9,29.84,SSE,157,6.3,-999.0,26,-99.99,,,0.00,Acu-Link.com,2013-07-03 01:07:00,
2013-07-02 19:23:00,85.6,46.8,29.84,SE,135,7.3,-999.0,26,-99.99,,,0.00,Acu-Link.com,2013-07-03 01:23:00,
2013-07-02 19:38:00,85.1,46.3,29.85,ESE,112,6.3,-999.0,26,-99.99,,,0.00,Acu-Link.com,2013-07-03 01:38:00,
2013-07-02 19:53:00,84.7,47.0,29.84,SSE,157,4.2,-999.0,27,-99.99,,,0.00,Acu-Link.com,2013-07-03 01:53:00,
2013-07-02 20:08:00,84.2,46.6,29.84,ENE,67,4.2,-999.0,27,-99.99,,,0.00,Acu-Link.com,2013-07-03 02:08:00,
2013-07-02 20:23:00,84.0,47.4,29.85,ESE,112,8.3,-999.0,28,-99.99,,,0.00,Acu-Link.com,2013-07-03 02:23:00,
2013-07-02 20:39:00,83.7,47.1,29.86,ESE,112,8.3,-999.0,28,-99.99,,,0.00,Acu-Link.com,2013-07-03 02:39:00,
2013-07-02 20:54:00,83.3,47.7,29.87,ESE,112,5.3,-999.0,29,-99.99,,,0.00,Acu-Link.com,2013-07-03 02:54:00,
2013-07-02 21:24:00,82.8,47.3,29.89,SE,135,6.8,-999.0,29,-99.99,,,0.00,Acu-Link.com,2013-07-03 03:24:00,
2013-07-02 21:40:00,82.8,47.3,29.91,East,90,7.8,-999.0,29,-99.99,,,0.00,Acu-Link.com,2013-07-03 03:40:00,
2013-07-02 21:55:00,82.6,48.0,29.93,NNE,22,6.8,-999.0,30,-99.99,,,0.00,Acu-Link.com,2013-07-03 03:55:00,
2013-07-02 22:10:00,76.6,54.8,29.93,NE,45,10.4,-999.0,47,-99.99,,,0.00,Acu-Link.com,2013-07-03 04:10:00,
2013-07-02 22:25:00,76.1,55.0,29.94,ESE,112,12.5,-999.0,48,-99.99,,,0.00,Acu-Link.com,2013-07-03 04:25:00,
2013-07-02 22:40:00,76.5,55.3,29.94,NE,45,7.8,-999.0,48,-99.99,,,0.00,Acu-Link.com,2013-07-03 04:40:00,
2013-07-02 22:55:00,77.0,54.6,29.93,ENE,67,6.3,-999.0,46,-99.99,,,0.00,Acu-Link.com,2013-07-03 04:55:00,
2013-07-02 23:11:00,76.5,53.6,29.95,NNE,22,7.8,-999.0,45,-99.99,,,0.00,Acu-Link.com,2013-07-03 05:11:00,
2013-07-02 23:26:00,73.6,54.3,29.96,NW,315,7.3,-999.0,51,-99.99,,,0.00,Acu-Link.com,2013-07-03 05:26:00,
2013-07-02 23:41:00,71.2,56.6,29.96,NNE,22,5.3,-999.0,60,-99.99,,,0.00,Acu-Link.com,2013-07-03 05:41:00,
2013-07-02 23:56:00,70.5,56.8,29.95,NW,315,5.3,-999.0,62,-99.99,,,0.00,Acu-Link.com,2013-07-03 05:56:00,